createdAt,value
2018-02-10T00:00:51.478Z,0.90
2018-02-10T00:03:19.722Z,0.90
2018-02-10T00:05:47.210Z,0.80
2018-02-10T00:08:14.683Z,0.90
2018-02-10T00:10:42.909Z,0.80
2018-02-10T00:13:10.407Z,0.80
2018-02-10T00:15:37.917Z,0.80
2018-02-10T00:18:05.386Z,0.80
2018-02-10T00:20:32.889Z,0.80
2018-02-10T00:23:01.114Z,0.70
2018-02-10T00:25:28.586Z,0.70
2018-02-10T00:27:56.282Z,0.70
2018-02-10T00:30:24.514Z,0.70
2018-02-10T00:32:51.992Z,0.70
2018-02-10T00:35:20.256Z,0.70
2018-02-10T00:37:47.727Z,0.70
2018-02-10T00:40:15.190Z,0.70
2018-02-10T00:42:42.754Z,0.70
2018-02-10T00:45:10.986Z,0.60
2018-02-10T00:47:38.449Z,0.60
2018-02-10T00:50:05.942Z,0.70
2018-02-10T00:52:34.169Z,0.70
2018-02-10T00:55:01.643Z,0.70
2018-02-10T00:57:29.135Z,0.70
2018-02-10T00:59:57.374Z,0.70
2018-02-10T01:02:24.847Z,0.70
2018-02-10T01:04:52.345Z,0.70
2018-02-10T01:07:19.847Z,0.70
2018-02-10T01:09:47.398Z,0.70
2018-02-10T01:12:15.237Z,0.80
2018-02-10T01:14:42.722Z,0.80
2018-02-10T01:17:10.235Z,0.80
2018-02-10T01:19:37.701Z,0.80
2018-02-10T01:22:05.176Z,0.90
2018-02-10T01:24:32.659Z,0.90
2018-02-10T01:27:00.139Z,0.90
2018-02-10T01:29:28.460Z,0.90
2018-02-10T01:31:56.066Z,0.90
2018-02-10T01:34:23.538Z,1.00
2018-02-10T01:36:52.330Z,1.00
2018-02-10T01:39:20.570Z,1.10
2018-02-10T01:41:48.036Z,1.00
2018-02-10T01:44:17.025Z,1.00
2018-02-10T01:46:44.517Z,1.00
2018-02-10T01:49:11.998Z,1.10
2018-02-10T01:51:39.467Z,1.20
2018-02-10T01:54:06.950Z,1.20
2018-02-10T01:56:34.425Z,1.30
2018-02-10T01:59:01.980Z,1.30
2018-02-10T02:01:31.226Z,1.30
2018-02-10T02:03:58.696Z,1.40
2018-02-10T02:06:26.157Z,1.40
2018-02-10T02:08:53.858Z,1.40
2018-02-10T02:11:22.141Z,1.50
2018-02-10T02:13:50.422Z,1.50
2018-02-10T02:16:17.919Z,1.50
2018-02-10T02:18:45.381Z,1.50
2018-02-10T02:21:12.849Z,1.60
2018-02-10T02:23:40.332Z,1.50
2018-02-10T02:26:08.561Z,1.60
2018-02-10T02:28:36.073Z,1.60
2018-02-10T02:31:03.543Z,1.50
2018-02-10T02:33:31.804Z,1.60
2018-02-10T02:36:00.041Z,1.60
2018-02-10T02:38:27.541Z,1.60
2018-02-10T02:40:55.782Z,1.60
2018-02-10T02:43:23.250Z,1.60
2018-02-10T02:45:50.740Z,1.60
2018-02-10T02:48:18.321Z,1.60
2018-02-10T02:50:45.781Z,1.60
2018-02-10T02:53:13.278Z,1.60
2018-02-10T02:55:41.518Z,1.60
2018-02-10T02:58:08.985Z,1.60
2018-02-10T03:00:36.489Z,1.60
2018-02-10T03:03:04.720Z,1.70
2018-02-10T03:05:32.173Z,1.60
2018-02-10T03:07:59.663Z,1.60
2018-02-10T03:10:27.898Z,1.70
2018-02-10T03:12:55.363Z,1.60
2018-02-10T03:15:22.845Z,1.60
2018-02-10T03:17:50.409Z,1.60
2018-02-10T03:20:18.662Z,1.50
2018-02-10T03:22:46.162Z,1.50
2018-02-10T03:25:13.628Z,1.50
2018-02-10T03:27:41.106Z,1.40
2018-02-10T03:30:08.606Z,1.40
2018-02-10T03:32:36.079Z,1.40
2018-02-10T03:35:04.450Z,1.40
2018-02-10T03:37:32.723Z,1.40
2018-02-10T03:40:00.954Z,1.30
2018-02-10T03:42:28.441Z,1.40
2018-02-10T03:44:55.913Z,1.30
2018-02-10T03:47:24.150Z,1.40
2018-02-10T03:49:51.633Z,1.40
2018-02-10T03:52:19.106Z,1.40
2018-02-10T03:54:47.346Z,1.40
2018-02-10T03:57:14.951Z,1.40
2018-02-10T03:59:43.182Z,1.50
2018-02-10T04:02:10.651Z,1.40
2018-02-10T04:04:38.139Z,1.50
2018-02-10T04:07:06.370Z,1.50
2018-02-10T04:09:33.837Z,1.50
2018-02-10T04:12:01.505Z,1.50
2018-02-10T04:14:28.977Z,1.60
2018-02-10T04:16:57.215Z,1.60
2018-02-10T04:19:24.714Z,1.60
2018-02-10T04:21:52.958Z,1.50
2018-02-10T04:24:20.427Z,1.50
2018-02-10T04:26:47.909Z,1.50
2018-02-10T04:29:15.369Z,1.50
2018-02-10T04:31:42.854Z,1.50
2018-02-10T04:34:10.450Z,1.60
2018-02-10T04:36:37.926Z,1.50
2018-02-10T04:39:06.177Z,1.60
2018-02-10T04:41:33.682Z,1.60
2018-02-10T04:44:01.150Z,1.60
2018-02-10T04:46:28.619Z,1.60
2018-02-10T04:48:56.116Z,1.60
2018-02-10T04:51:23.596Z,1.70
2018-02-10T04:53:51.183Z,1.70
2018-02-10T04:56:18.671Z,1.70
2018-02-10T04:58:46.138Z,1.70
2018-02-10T05:01:15.127Z,1.80
2018-02-10T05:03:43.394Z,1.80
2018-02-10T05:06:10.866Z,1.70
2018-02-10T05:08:38.330Z,1.80
2018-02-10T05:11:05.825Z,1.80
2018-02-10T05:13:33.295Z,1.80
2018-02-10T05:16:00.757Z,1.80
2018-02-10T05:18:28.245Z,1.90
2018-02-10T05:20:55.736Z,1.90
2018-02-10T05:23:23.970Z,1.90
2018-02-10T05:25:51.462Z,1.90
2018-02-10T05:28:18.934Z,1.90
2018-02-10T05:30:46.448Z,1.80
2018-02-10T05:33:13.948Z,1.80
2018-02-10T05:35:41.429Z,1.80
2018-02-10T05:38:08.902Z,1.80
2018-02-10T05:40:36.581Z,1.80
2018-02-10T05:43:04.050Z,1.80
2018-02-10T05:45:32.282Z,1.80
2018-02-10T05:47:59.774Z,1.80
2018-02-10T05:50:27.241Z,1.80
2018-02-10T05:52:55.474Z,1.70
2018-02-10T05:55:22.969Z,1.70
2018-02-10T05:57:51.206Z,1.80
2018-02-10T06:00:18.682Z,1.80
2018-02-10T06:02:46.182Z,1.80
2018-02-10T06:05:13.710Z,1.80
2018-02-10T06:07:41.966Z,1.90
2018-02-10T06:10:09.690Z,1.90
2018-02-10T06:12:37.158Z,1.90
2018-02-10T06:15:04.631Z,1.90
2018-02-10T06:17:32.117Z,2.00
2018-02-10T06:19:59.582Z,1.90
2018-02-10T06:22:28.653Z,2.00
2018-02-10T06:24:56.131Z,2.00
2018-02-10T06:27:24.375Z,1.90
2018-02-10T06:29:51.872Z,1.90
2018-02-10T06:32:20.933Z,2.00
2018-02-10T06:34:48.458Z,2.00
2018-02-10T06:37:15.966Z,2.00
2018-02-10T06:39:43.531Z,2.00
2018-02-10T06:42:11.767Z,2.00
2018-02-10T06:44:39.254Z,2.00
2018-02-10T06:47:06.732Z,1.90
2018-02-10T06:49:34.962Z,1.90
2018-02-10T06:52:02.450Z,1.90
2018-02-10T06:54:30.688Z,1.90
2018-02-10T06:56:58.176Z,1.90
2018-02-10T06:59:26.095Z,1.90
2018-02-10T07:01:54.126Z,1.90
2018-02-10T07:04:22.393Z,1.90
2018-02-10T07:06:49.858Z,1.90
2018-02-10T07:09:18.089Z,1.90
2018-02-10T07:11:45.585Z,1.90
2018-02-10T07:14:13.818Z,1.90
2018-02-10T07:16:41.290Z,1.90
2018-02-10T07:19:08.793Z,1.90
2018-02-10T07:21:36.279Z,1.90
2018-02-10T07:24:03.754Z,1.90
2018-02-10T07:26:31.246Z,2.00
2018-02-10T07:28:59.497Z,1.90
2018-02-10T07:31:26.980Z,1.90
2018-02-10T07:33:55.283Z,1.90
2018-02-10T07:36:22.713Z,1.90
2018-02-10T07:38:50.950Z,1.90
2018-02-10T07:41:19.097Z,1.90
2018-02-10T07:43:46.567Z,1.90
2018-02-10T07:46:14.061Z,1.80
2018-02-10T07:48:42.293Z,1.80
2018-02-10T07:51:09.804Z,1.80
2018-02-10T07:53:38.043Z,1.90
2018-02-10T07:56:05.632Z,1.90
2018-02-10T07:58:33.865Z,1.90
2018-02-10T08:01:01.324Z,1.90
2018-02-10T08:03:28.806Z,1.90
2018-02-10T08:05:56.300Z,1.90
2018-02-10T08:08:23.879Z,1.90
2018-02-10T08:10:51.366Z,1.90
2018-02-10T08:13:18.834Z,1.90
2018-02-10T08:15:46.311Z,2.00
2018-02-10T08:18:14.686Z,2.00
2018-02-10T08:20:42.934Z,2.00
2018-02-10T08:23:10.413Z,2.00
2018-02-10T08:25:38.662Z,2.10
2018-02-10T08:28:06.136Z,2.10
2018-02-10T08:30:33.612Z,2.20
2018-02-10T08:33:01.874Z,2.20
2018-02-10T08:35:30.110Z,2.20
2018-02-10T08:37:57.583Z,2.20
2018-02-10T08:40:25.075Z,2.20
2018-02-10T08:42:53.326Z,2.20
2018-02-10T08:45:20.805Z,2.10
2018-02-10T08:47:49.065Z,2.30
2018-02-10T08:50:16.528Z,2.30
2018-02-10T08:52:44.766Z,2.30
2018-02-10T08:55:12.266Z,2.30
2018-02-10T08:57:39.789Z,2.40
2018-02-10T09:00:07.884Z,2.30
2018-02-10T09:02:35.721Z,2.30
2018-02-10T09:05:04.790Z,2.30
2018-02-10T09:07:32.265Z,2.40
2018-02-10T09:09:59.739Z,2.40
2018-02-10T09:12:27.217Z,2.40
2018-02-10T09:14:55.475Z,2.50
2018-02-10T09:17:24.215Z,2.50
2018-02-10T09:19:51.834Z,2.60
2018-02-10T09:22:20.807Z,2.60
2018-02-10T09:24:48.331Z,2.60
2018-02-10T09:27:15.819Z,2.60
2018-02-10T09:29:43.302Z,2.60
2018-02-10T09:32:10.750Z,2.50
2018-02-10T09:34:38.240Z,2.60
2018-02-10T09:37:05.693Z,2.60
2018-02-10T09:39:33.212Z,2.60
2018-02-10T09:42:00.665Z,2.60
2018-02-10T09:44:28.174Z,2.60
2018-02-10T09:46:55.662Z,2.60
2018-02-10T09:49:23.137Z,2.60
2018-02-10T09:51:50.593Z,2.70
2018-02-10T09:54:18.070Z,2.70
2018-02-10T09:56:46.305Z,2.70
2018-02-10T09:59:14.630Z,2.60
2018-02-10T10:01:42.903Z,2.70
2018-02-10T10:04:10.396Z,2.70
2018-02-10T10:06:37.867Z,2.70
2018-02-10T10:09:05.342Z,2.80
2018-02-10T10:11:32.814Z,2.70
2018-02-10T10:14:01.107Z,2.70
2018-02-10T10:16:28.659Z,2.70
2018-02-10T10:18:56.154Z,2.80
2018-02-10T10:21:23.608Z,2.70
2018-02-10T10:23:51.081Z,2.70
2018-02-10T10:26:18.589Z,2.60
2018-02-10T10:28:46.831Z,2.70
2018-02-10T10:31:14.299Z,2.70
2018-02-10T10:33:41.797Z,2.80
2018-02-10T10:36:09.691Z,2.90
2018-02-10T10:38:37.142Z,2.90
2018-02-10T10:41:04.746Z,2.90
2018-02-10T10:43:32.216Z,3.00
2018-02-10T10:46:00.624Z,3.00
2018-02-10T10:48:29.062Z,3.00
2018-02-10T10:50:57.309Z,3.10
2018-02-10T10:53:24.775Z,3.10
2018-02-10T10:55:52.271Z,3.10
2018-02-10T10:58:20.504Z,3.10
2018-02-10T11:00:47.986Z,3.10
2018-02-10T11:03:15.467Z,3.10
2018-02-10T11:05:42.934Z,3.10
2018-02-10T11:08:10.403Z,3.20
2018-02-10T11:10:37.890Z,3.20
2018-02-10T11:13:05.362Z,3.20
2018-02-10T11:15:32.858Z,3.20
2018-02-10T11:18:00.355Z,3.30
2018-02-10T11:20:27.827Z,3.40
2018-02-10T11:22:55.308Z,3.30
2018-02-10T11:25:23.526Z,3.30
2018-02-10T11:27:51.009Z,3.30
2018-02-10T11:30:18.486Z,3.30
2018-02-10T11:32:46.794Z,3.30
2018-02-10T11:35:14.278Z,3.30
2018-02-10T11:37:41.768Z,3.30
2018-02-10T11:40:09.239Z,3.40
2018-02-10T11:42:37.470Z,3.40
2018-02-10T11:45:05.723Z,3.40
2018-02-10T11:47:33.185Z,3.40
2018-02-10T11:50:01.499Z,3.40
2018-02-10T11:52:29.733Z,3.40
2018-02-10T11:54:57.218Z,3.40
2018-02-10T11:57:24.690Z,3.50
2018-02-10T11:59:52.359Z,3.60
2018-02-10T12:02:19.821Z,3.60
2018-02-10T12:04:48.050Z,3.60
2018-02-10T12:07:15.536Z,3.60
2018-02-10T12:09:42.995Z,3.60
2018-02-10T12:12:10.484Z,3.60
2018-02-10T12:14:38.740Z,3.60
2018-02-10T12:17:06.982Z,3.60
2018-02-10T12:19:34.461Z,3.60
2018-02-10T12:22:01.974Z,3.60
2018-02-10T12:24:29.442Z,3.70
2018-02-10T12:26:56.902Z,3.70
2018-02-10T12:29:24.419Z,3.80
2018-02-10T12:31:52.655Z,3.80
2018-02-10T12:34:20.130Z,3.80
2018-02-10T12:36:47.618Z,3.70
2018-02-10T12:39:15.098Z,3.70
2018-02-10T12:41:42.605Z,3.80
2018-02-10T12:44:10.838Z,4.10
2018-02-10T12:46:38.302Z,4.10
2018-02-10T12:49:11.517Z,4.20
2018-02-10T12:51:38.986Z,4.50
2018-02-10T12:54:07.224Z,4.80
2018-02-10T12:56:34.710Z,4.70
2018-02-10T12:59:02.203Z,4.80
2018-02-10T13:01:29.685Z,4.80
2018-02-10T13:03:57.330Z,4.80
2018-02-10T13:06:24.858Z,4.70
2018-02-10T13:08:52.346Z,4.70
2018-02-10T13:11:19.863Z,4.70
2018-02-10T13:13:47.298Z,4.80
2018-02-10T13:16:14.790Z,4.80
2018-02-10T13:18:43.024Z,4.80
2018-02-10T13:21:10.519Z,4.80
2018-02-10T13:23:38.751Z,4.70
2018-02-10T13:26:06.222Z,4.70
2018-02-10T13:28:33.809Z,4.70
2018-02-10T13:31:02.039Z,4.70
2018-02-10T13:33:29.514Z,4.60
2018-02-10T13:35:56.992Z,4.60
2018-02-10T13:38:25.250Z,4.40
2018-02-10T13:40:52.731Z,4.40
2018-02-10T13:43:20.953Z,4.40
2018-02-10T13:45:49.532Z,4.40
2018-02-10T13:51:16.619Z,4.40
2018-02-10T13:53:44.109Z,4.50
2018-02-10T13:56:13.326Z,4.50
2018-02-10T13:58:40.825Z,4.40
2018-02-10T14:01:08.314Z,4.40
2018-02-10T14:03:36.557Z,4.50
2018-02-10T14:06:04.024Z,4.50
2018-02-10T14:08:31.517Z,4.60
2018-02-10T14:10:59.738Z,4.80
2018-02-10T14:13:27.205Z,4.70
2018-02-10T14:15:54.693Z,4.90
2018-02-10T14:18:22.930Z,5.00
2018-02-10T14:20:50.389Z,5.00
2018-02-10T14:23:17.887Z,4.90
2018-02-10T14:25:46.126Z,5.00
2018-02-10T14:28:13.643Z,4.90
2018-02-10T14:30:41.124Z,4.90
2018-02-10T14:33:08.615Z,4.90
2018-02-10T14:35:36.850Z,4.60
2018-02-10T14:38:04.392Z,4.60
2018-02-10T14:40:32.569Z,4.40
2018-02-10T14:43:00.035Z,4.40
2018-02-10T14:45:27.635Z,4.40
2018-02-10T14:47:55.101Z,4.40
2018-02-10T14:50:23.322Z,4.40
2018-02-10T14:52:50.977Z,4.30
2018-02-10T14:55:18.447Z,4.40
2018-02-10T14:57:45.968Z,4.40
2018-02-10T15:00:13.446Z,4.40
2018-02-10T15:02:40.902Z,4.50
2018-02-10T15:05:08.373Z,4.50
2018-02-10T15:07:35.866Z,4.60
2018-02-10T15:10:03.365Z,4.60
2018-02-10T15:12:30.947Z,4.60
2018-02-10T15:14:58.426Z,4.70
2018-02-10T15:17:25.914Z,4.70
2018-02-10T15:19:54.142Z,4.80
2018-02-10T15:22:21.599Z,4.80
2018-02-10T15:24:50.982Z,4.80
2018-02-10T15:27:18.462Z,4.70
2018-02-10T15:29:57.746Z,4.70
2018-02-10T15:32:37.100Z,4.60
2018-02-10T15:35:04.583Z,4.60
2018-02-10T15:37:32.058Z,4.60
2018-02-10T15:39:59.593Z,4.60
2018-02-10T15:42:28.709Z,4.60
2018-02-10T15:44:56.178Z,4.60
2018-02-10T15:47:24.430Z,4.50
2018-02-10T15:49:51.906Z,4.40
2018-02-10T15:52:19.375Z,4.40
2018-02-10T15:54:47.625Z,4.10
2018-02-10T15:57:15.094Z,4.10
2018-02-10T15:59:43.566Z,4.00
2018-02-10T16:02:11.050Z,4.00
2018-02-10T16:04:39.287Z,3.80
2018-02-10T16:07:06.762Z,3.80
2018-02-10T16:09:34.250Z,3.70
2018-02-10T16:12:01.746Z,3.70
2018-02-10T16:14:29.241Z,3.60
2018-02-10T16:16:57.475Z,3.50
2018-02-10T16:19:24.938Z,3.50
2018-02-10T16:21:52.432Z,3.50
2018-02-10T16:24:20.713Z,3.40
2018-02-10T16:26:48.941Z,3.40
2018-02-10T16:29:16.431Z,3.40
2018-02-10T16:31:43.902Z,3.40
2018-02-10T16:34:12.166Z,3.20
2018-02-10T16:36:39.619Z,3.20
2018-02-10T16:39:07.087Z,3.10
2018-02-10T16:41:35.339Z,3.00
2018-02-10T16:44:02.804Z,3.00
2018-02-10T16:46:30.276Z,3.00
2018-02-10T16:48:58.526Z,2.90
2018-02-10T16:51:26.806Z,2.90
2018-02-10T16:53:54.297Z,2.80
2018-02-10T16:56:21.781Z,2.80
2018-02-10T16:58:49.381Z,2.80
2018-02-10T17:01:16.848Z,2.70
2018-02-10T17:03:45.124Z,2.60
2018-02-10T17:06:12.607Z,2.60
2018-02-10T17:08:40.078Z,2.60
2018-02-10T17:11:07.591Z,2.60
2018-02-10T17:13:35.814Z,2.50
2018-02-10T17:16:03.297Z,2.50
2018-02-10T17:18:30.793Z,2.50
2018-02-10T17:20:58.266Z,2.50
2018-02-10T17:23:25.742Z,2.40
2018-02-10T17:25:53.262Z,2.40
2018-02-10T17:28:21.522Z,2.40
2018-02-10T17:30:49.781Z,2.40
2018-02-10T17:33:17.259Z,2.40
2018-02-10T17:35:45.713Z,2.40
2018-02-10T17:38:13.193Z,2.40
2018-02-10T17:40:41.438Z,2.30
2018-02-10T17:43:08.898Z,2.30
2018-02-10T17:45:36.390Z,2.30
2018-02-10T17:48:04.628Z,2.20
2018-02-10T17:50:32.113Z,2.20
2018-02-10T17:52:59.578Z,2.20
2018-02-10T17:55:27.871Z,2.20
2018-02-10T17:57:56.333Z,2.20
2018-02-10T18:00:24.569Z,2.20
2018-02-10T18:02:52.064Z,2.20
2018-02-10T18:05:20.314Z,2.10
2018-02-10T18:07:47.795Z,2.10
2018-02-10T18:10:16.138Z,2.10
2018-02-10T18:12:43.615Z,2.20
2018-02-10T18:15:11.078Z,2.20
2018-02-10T18:17:39.350Z,2.30
2018-02-10T18:20:06.834Z,2.20
2018-02-10T18:22:34.298Z,2.30
2018-02-10T18:25:01.798Z,2.20
2018-02-10T18:27:30.035Z,2.20
2018-02-10T18:29:57.523Z,2.20
2018-02-10T18:32:25.006Z,2.20
2018-02-10T18:34:52.573Z,2.20
2018-02-10T18:37:20.046Z,2.20
2018-02-10T18:39:47.686Z,2.20
2018-02-10T18:42:15.174Z,2.10
2018-02-10T18:44:42.645Z,2.10
2018-02-10T18:47:10.142Z,2.10
2018-02-10T18:49:37.622Z,2.10
2018-02-10T18:52:05.868Z,2.20
2018-02-10T18:54:33.363Z,2.20
2018-02-10T18:57:01.603Z,2.20
2018-02-10T18:59:29.125Z,2.20
2018-02-10T19:01:56.592Z,2.10
2018-02-10T19:04:24.064Z,2.10
2018-02-10T19:06:51.568Z,2.10
2018-02-10T19:09:19.800Z,2.00
2018-02-10T19:11:47.302Z,2.00
2018-02-10T19:14:14.789Z,2.00
2018-02-10T19:16:42.258Z,1.90
2018-02-10T19:19:09.750Z,1.90
2018-02-10T19:21:37.995Z,1.90
2018-02-10T19:24:05.495Z,1.90
2018-02-10T19:26:32.987Z,2.00
2018-02-10T19:29:00.459Z,2.00
2018-02-10T19:31:27.946Z,2.00
2018-02-10T19:33:55.416Z,2.00
2018-02-10T19:36:23.671Z,2.00
2018-02-10T19:38:51.142Z,2.00
2018-02-10T19:41:19.367Z,1.90
2018-02-10T19:43:46.868Z,1.90
2018-02-10T19:46:14.350Z,1.90
2018-02-10T19:48:41.828Z,1.90
2018-02-10T19:51:09.324Z,1.90
2018-02-10T19:53:36.801Z,2.00
2018-02-10T19:56:05.067Z,2.00
2018-02-10T19:58:32.539Z,2.00
2018-02-10T20:01:00.814Z,1.90
2018-02-10T20:03:29.069Z,2.00
2018-02-10T20:05:56.619Z,2.00
2018-02-10T20:08:24.085Z,2.00
2018-02-10T20:10:51.579Z,2.00
2018-02-10T20:13:19.061Z,2.00
2018-02-10T20:15:46.558Z,2.10
2018-02-10T20:18:14.033Z,2.10
2018-02-10T20:20:42.286Z,2.10
2018-02-10T20:23:09.774Z,2.10
2018-02-10T20:25:37.250Z,2.10
2018-02-10T20:28:04.730Z,2.10
2018-02-10T20:30:32.997Z,2.10
2018-02-10T20:33:00.471Z,2.10
2018-02-10T20:35:28.708Z,2.10
2018-02-10T20:37:56.183Z,2.10
2018-02-10T20:40:23.650Z,2.10
2018-02-10T20:42:51.146Z,2.20
2018-02-10T20:45:19.372Z,2.20
2018-02-10T20:47:46.852Z,2.20
2018-02-10T20:50:14.346Z,2.10
2018-02-10T20:52:42.570Z,2.20
2018-02-10T20:55:10.034Z,2.10
2018-02-10T20:57:37.528Z,2.10
2018-02-10T21:00:05.745Z,2.10
2018-02-10T21:02:33.377Z,2.20
2018-02-10T21:05:00.858Z,2.20
2018-02-10T21:07:28.318Z,2.20
2018-02-10T21:09:55.814Z,2.20
2018-02-10T21:12:23.282Z,2.20
2018-02-10T21:14:51.510Z,2.20
2018-02-10T21:17:19.016Z,2.20
2018-02-10T21:19:47.831Z,2.30
2018-02-10T21:22:15.324Z,2.30
2018-02-10T21:24:42.778Z,2.20
2018-02-10T21:27:10.247Z,2.20
2018-02-10T21:29:37.732Z,2.20
2018-02-10T21:32:05.965Z,2.10
2018-02-10T21:34:33.443Z,2.10
2018-02-10T21:37:01.066Z,2.20
2018-02-10T21:39:28.611Z,2.20
2018-02-10T21:41:56.518Z,2.20
2018-02-10T21:44:24.004Z,2.20
2018-02-10T21:46:51.472Z,2.10
2018-02-10T21:49:20.306Z,2.00
2018-02-10T21:51:47.754Z,2.00
2018-02-10T21:54:15.227Z,2.10
2018-02-10T21:56:42.724Z,2.10
2018-02-10T21:59:11.450Z,2.10
2018-02-10T22:01:38.923Z,2.10
2018-02-10T22:04:06.419Z,2.20
2018-02-10T22:06:33.882Z,2.20
2018-02-10T22:09:02.153Z,2.20
2018-02-10T22:11:30.378Z,2.20
2018-02-10T22:13:57.849Z,2.30
2018-02-10T22:16:25.559Z,2.30
2018-02-10T22:18:53.027Z,2.30
2018-02-10T22:21:20.489Z,2.30
2018-02-10T22:23:47.986Z,2.30
2018-02-10T22:26:15.458Z,2.30
2018-02-10T22:28:43.715Z,2.30
2018-02-10T22:31:11.182Z,2.30
2018-02-10T22:33:38.666Z,2.30
2018-02-10T22:36:06.910Z,2.30
2018-02-10T22:38:34.393Z,2.30
2018-02-10T22:41:02.623Z,2.40
2018-02-10T22:43:30.110Z,2.40
2018-02-10T22:45:57.566Z,2.40
2018-02-10T22:48:25.058Z,2.40
2018-02-10T22:50:52.524Z,2.40
2018-02-10T22:53:19.990Z,2.40
2018-02-10T22:55:47.475Z,2.40
2018-02-10T22:58:14.933Z,2.40
2018-02-10T23:00:42.402Z,2.40
2018-02-10T23:03:12.494Z,2.30
2018-02-10T23:05:39.951Z,2.30
2018-02-10T23:08:07.531Z,2.20
2018-02-10T23:10:34.979Z,2.20
2018-02-10T23:13:02.469Z,2.20
2018-02-10T23:15:30.711Z,2.20
2018-02-10T23:17:58.183Z,2.20
2018-02-10T23:20:25.766Z,2.20
2018-02-10T23:22:53.254Z,2.20
2018-02-10T23:25:20.738Z,2.20
2018-02-10T23:27:48.228Z,2.20
2018-02-10T23:30:16.463Z,2.20
2018-02-10T23:32:43.929Z,2.20
2018-02-10T23:35:11.456Z,2.20
2018-02-10T23:37:38.908Z,2.20
2018-02-10T23:40:06.370Z,2.20
2018-02-10T23:42:33.858Z,2.20
2018-02-10T23:45:01.325Z,2.10
2018-02-10T23:47:28.818Z,2.00
2018-02-10T23:49:56.298Z,1.90
2018-02-10T23:52:23.755Z,1.70
2018-02-10T23:54:51.245Z,1.60
2018-02-10T23:57:20.230Z,1.40
2018-02-10T23:59:47.699Z,1.40
